Time;durP1;ratioP1;P1;durP2;ratioP2;P2;SDS_P1;SDS_P2;PMS_P1;PMS_P2;Temp;Humidity;BMP_temperature;BMP_pressure;BME280_temperature;BME280_humidity;BME280_pressure;Samples;Min_cycle;Max_cycle;Signal;HPM_P1;HPM_P2
2022/05/24 00:01:15;;;;;;;2.28;2.00;;;18.10;99.90;;;;;;4956649;29;20050;-79
2022/05/24 00:03:41;;;;;;;2.70;1.92;;;18.10;99.90;;;;;;4957351;29;20071;-79
2022/05/24 00:06:07;;;;;;;2.67;2.08;;;18.10;99.90;;;;;;4957720;29;20031;-79
2022/05/24 00:08:33;;;;;;;2.53;2.20;;;18.00;99.90;;;;;;4957319;29;20035;-80
2022/05/24 00:10:59;;;;;;;2.10;1.90;;;18.00;99.90;;;;;;4957391;29;20114;-79
2022/05/24 00:13:25;;;;;;;2.88;2.00;;;18.00;99.90;;;;;;4956177;29;20051;-80
2022/05/24 00:15:51;;;;;;;2.97;1.92;;;18.00;99.90;;;;;;4956589;29;20074;-80
2022/05/24 00:18:23;;;;;;;2.33;1.88;;;18.00;99.90;;;;;;4956560;29;20054;-79
2022/05/24 00:20:52;;;;;;;4.93;2.55;;;18.00;99.90;;;;;;4957561;29;20032;-79
2022/05/24 00:23:19;;;;;;;3.95;2.13;;;17.90;99.90;;;;;;4956203;29;20038;-79
2022/05/24 00:25:47;;;;;;;2.83;1.80;;;17.90;99.90;;;;;;4955981;29;20119;-79
2022/05/24 00:28:15;;;;;;;3.50;2.03;;;17.90;99.90;;;;;;4956326;29;20027;-79
2022/05/24 00:30:42;;;;;;;1.88;1.77;;;17.80;99.90;;;;;;4955787;29;20035;-80
2022/05/24 00:33:08;;;;;;;7.78;2.30;;;17.80;99.90;;;;;;4956337;29;20082;-80
2022/05/24 00:35:34;;;;;;;4.45;1.92;;;17.80;99.90;;;;;;4956847;29;20031;-79
2022/05/24 00:38:00;;;;;;;2.58;2.10;;;17.80;99.90;;;;;;4956377;29;20031;-79
2022/05/24 00:40:44;;;;;;;3.92;2.25;;;17.80;99.90;;;;;;4955410;29;20362;-79
2022/05/24 00:43:37;;;;;;;4.57;2.13;;;17.80;99.90;;;;;;4956121;29;20031;-79
2022/05/24 00:46:11;;;;;;;2.80;2.08;;;17.70;99.90;;;;;;4955902;29;20028;-78
2022/05/24 00:48:50;;;;;;;5.10;2.10;;;17.80;99.90;;;;;;4955380;28;20037;-79
2022/05/24 00:51:24;;;;;;;2.88;1.88;;;17.70;99.90;;;;;;4957068;29;20086;-79
2022/05/24 00:53:52;;;;;;;2.47;1.98;;;17.70;99.90;;;;;;4956159;29;20039;-79
2022/05/24 00:56:32;;;;;;;4.38;2.55;;;17.70;99.90;;;;;;4955904;29;20122;-79
2022/05/24 00:59:03;;;;;;;2.20;2.00;;;17.70;99.90;;;;;;4955808;29;20023;-79
2022/05/24 01:01:39;;;;;;;3.50;2.40;;;17.70;99.90;;;;;;4954905;29;20035;-79
2022/05/24 01:04:07;;;;;;;3.05;2.70;;;17.60;99.90;;;;;;4955647;29;20122;-79
2022/05/24 01:06:33;;;;;;;4.63;3.08;;;17.60;99.90;;;;;;4955102;29;20024;-79
2022/05/24 01:09:03;;;;;;;3.78;2.28;;;17.60;99.90;;;;;;4955447;29;20384;-79
2022/05/24 01:11:32;;;;;;;2.85;2.58;;;17.60;99.90;;;;;;4955829;29;20063;-79
2022/05/24 01:14:00;;;;;;;3.75;2.83;;;17.60;99.90;;;;;;4955287;29;20091;-79
2022/05/24 01:16:25;;;;;;;4.53;2.60;;;17.60;99.90;;;;;;4955132;29;20023;-79
2022/05/24 01:18:51;;;;;;;4.38;2.75;;;17.60;99.90;;;;;;4954923;29;20034;-78
2022/05/24 01:21:18;;;;;;;3.10;2.80;;;17.60;99.90;;;;;;4956121;29;20035;-78
2022/05/24 01:24:16;;;;;;;4.93;2.88;;;17.50;99.90;;;;;;4954322;29;20185;-78
2022/05/24 01:26:53;;;;;;;4.03;2.70;;;17.40;99.90;;;;;;4954573;29;20481;-78
2022/05/24 01:29:21;;;;;;;4.68;2.85;;;17.40;99.90;;;;;;4954824;29;20448;-78
2022/05/24 01:37:18;;;;;;;4.43;2.78;;;17.40;99.90;;;;;;4955924;29;20096;-78
2022/05/24 01:39:48;;;;;;;2.97;2.42;;;17.40;99.90;;;;;;4954657;29;20042;-79
2022/05/24 01:42:16;;;;;;;3.78;2.65;;;17.40;99.90;;;;;;4955652;29;20062;-79
2022/05/24 01:44:50;;;;;;;4.43;2.75;;;17.40;99.90;;;;;;4953883;29;20030;-79
2022/05/24 01:47:18;;;;;;;5.13;2.80;;;17.30;99.90;;;;;;4955684;29;20030;-79
2022/05/24 01:49:47;;;;;;;4.72;2.88;;;17.30;99.90;;;;;;4954076;29;20074;-79
2022/05/24 01:52:39;;;;;;;4.80;2.95;;;17.30;99.90;;;;;;4954516;29;20031;-79
2022/05/24 01:55:09;;;;;;;2.80;2.50;;;17.30;99.90;;;;;;4955461;29;20384;-79
2022/05/24 01:57:43;;;;;;;3.28;2.70;;;17.30;99.90;;;;;;4954207;29;20028;-79
2022/05/24 02:00:12;;;;;;;4.13;3.03;;;17.30;99.90;;;;;;4954329;28;20024;-78
2022/05/24 02:02:38;;;;;;;4.80;2.95;;;17.30;99.90;;;;;;4953512;29;20027;-79
2022/05/24 02:05:05;;;;;;;6.78;2.95;;;17.30;99.90;;;;;;4955451;29;20355;-78
2022/05/24 02:07:32;;;;;;;2.90;2.30;;;17.30;99.90;;;;;;4953672;29;20031;-79
2022/05/24 02:09:58;;;;;;;4.28;2.75;;;17.20;99.90;;;;;;4954237;29;20495;-79
2022/05/24 02:12:29;;;;;;;3.40;3.10;;;17.20;99.90;;;;;;4953943;29;20042;-79
2022/05/24 02:15:06;;;;;;;5.00;3.05;;;17.20;99.90;;;;;;4954180;29;20038;-78
2022/05/24 02:17:51;;;;;;;3.15;2.70;;;17.20;99.90;;;;;;4954672;29;20127;-78
2022/05/24 02:20:30;;;;;;;3.88;2.63;;;17.20;99.90;;;;;;4954025;29;20031;-78
2022/05/24 02:22:56;;;;;;;3.47;2.50;;;17.20;99.90;;;;;;4954301;29;20545;-77
2022/05/24 02:25:33;;;;;;;6.20;2.78;;;17.20;99.90;;;;;;4955604;29;20043;-78
2022/05/24 02:27:58;;;;;;;2.60;2.20;;;17.20;99.90;;;;;;4955620;29;20027;-78
2022/05/24 02:30:27;;;;;;;5.68;2.45;;;17.20;99.90;;;;;;4954131;29;20081;-78
2022/05/24 02:32:53;;;;;;;3.28;2.17;;;17.20;99.90;;;;;;4953676;29;20031;-78
2022/05/24 02:35:20;;;;;;;3.28;2.33;;;17.20;99.90;;;;;;4954181;29;20039;-78
2022/05/24 02:37:46;;;;;;;5.03;2.85;;;17.20;99.90;;;;;;4953983;29;20027;-78
2022/05/24 02:42:56;;;;;;;3.53;2.22;;;17.20;99.90;;;;;;4955604;29;20130;-78
2022/05/24 02:45:22;;;;;;;4.00;2.40;;;17.20;99.90;;;;;;4955307;29;20063;-78
2022/05/24 02:47:48;;;;;;;3.90;2.42;;;17.10;99.90;;;;;;4953752;29;20042;-79
2022/05/24 02:50:14;;;;;;;3.03;2.10;;;17.20;99.90;;;;;;4953776;29;20062;-78
2022/05/24 02:52:40;;;;;;;2.65;2.22;;;17.10;99.90;;;;;;4953554;29;20043;-79
2022/05/24 02:55:08;;;;;;;3.47;2.20;;;17.10;99.90;;;;;;4955245;29;20026;-79
2022/05/24 02:57:34;;;;;;;2.72;2.17;;;17.10;99.90;;;;;;4953667;29;20035;-79
2022/05/24 02:59:59;;;;;;;4.22;2.60;;;17.10;99.90;;;;;;4954245;29;20453;-79
2022/05/24 03:02:25;;;;;;;5.72;2.60;;;17.10;99.90;;;;;;4955166;29;20110;-79
2022/05/24 03:04:51;;;;;;;3.70;2.60;;;17.10;99.90;;;;;;4953586;29;20122;-79
2022/05/24 03:10:01;;;;;;;3.33;2.17;;;17.00;99.90;;;;;;4955191;29;20043;-79
2022/05/24 03:15:12;;;;;;;6.05;2.22;;;17.00;99.90;;;;;;4958708;29;20069;-78
2022/05/24 03:17:37;;;;;;;5.20;2.55;;;16.90;99.90;;;;;;4956982;29;20031;-79
2022/05/24 03:20:04;;;;;;;5.55;2.60;;;16.90;99.90;;;;;;4956971;29;20122;-79
2022/05/24 03:22:30;;;;;;;3.33;2.15;;;16.90;99.90;;;;;;4957376;29;20443;-79
2022/05/24 03:24:55;;;;;;;5.38;2.40;;;16.90;99.90;;;;;;4956546;29;20143;-79
2022/05/24 03:27:21;;;;;;;4.10;2.25;;;16.80;99.90;;;;;;4957473;29;20473;-79
2022/05/24 03:29:48;;;;;;;2.90;2.13;;;16.90;99.90;;;;;;4958086;29;20027;-79
2022/05/24 03:32:16;;;;;;;6.45;2.13;;;16.80;99.90;;;;;;4956888;29;20056;-77
2022/05/24 03:34:42;;;;;;;3.05;1.90;;;16.90;99.90;;;;;;4956384;29;20117;-77
2022/05/24 03:37:08;;;;;;;2.33;1.98;;;16.90;99.90;;;;;;4956879;29;20130;-77
2022/05/24 03:39:34;;;;;;;3.05;1.98;;;16.90;99.90;;;;;;4956229;29;20027;-78
2022/05/24 03:42:00;;;;;;;4.95;2.17;;;16.80;99.90;;;;;;4956744;29;20034;-77
2022/05/24 03:44:26;;;;;;;3.45;1.67;;;16.90;99.90;;;;;;4957945;29;20377;-78
2022/05/24 03:46:53;;;;;;;4.10;2.00;;;16.90;99.90;;;;;;4956324;29;20019;-78
2022/05/24 03:49:19;;;;;;;4.57;2.47;;;16.80;99.90;;;;;;4956649;29;20035;-77
2022/05/24 03:51:45;;;;;;;3.25;2.20;;;16.80;99.90;;;;;;4956218;29;20039;-80
2022/05/24 03:54:11;;;;;;;6.65;2.10;;;16.80;99.90;;;;;;4957325;29;20035;-81
2022/05/24 03:56:37;;;;;;;3.10;2.13;;;16.80;99.90;;;;;;4956658;29;20031;-80
2022/05/24 03:59:03;;;;;;;4.00;2.40;;;16.90;99.90;;;;;;4940922;29;20031;-80
2022/05/24 04:01:29;;;;;;;4.10;2.75;;;16.90;99.90;;;;;;4957081;29;20042;-80
2022/05/24 04:03:55;;;;;;;4.07;3.20;;;16.80;99.90;;;;;;4956498;29;20031;-80
2022/05/24 04:06:20;;;;;;;3.75;3.03;;;16.90;99.90;;;;;;4956675;29;20481;-78
2022/05/24 04:08:46;;;;;;;4.15;2.92;;;16.80;99.90;;;;;;4956977;29;20031;-78
2022/05/24 04:11:13;;;;;;;3.33;2.65;;;16.80;99.90;;;;;;4956252;29;20031;-78
2022/05/24 04:13:41;;;;;;;3.65;2.90;;;16.80;99.90;;;;;;4956011;29;20480;-78
2022/05/24 04:16:08;;;;;;;4.03;2.53;;;16.90;99.90;;;;;;4956268;29;20047;-78
2022/05/24 04:18:35;;;;;;;3.67;2.65;;;16.80;99.90;;;;;;4956226;29;20031;-78
2022/05/24 04:21:01;;;;;;;2.72;2.20;;;16.80;99.90;;;;;;4956465;29;20042;-79
2022/05/24 04:23:27;;;;;;;3.00;2.20;;;16.80;99.90;;;;;;4956047;28;20023;-78
2022/05/24 04:25:54;;;;;;;3.50;2.35;;;16.80;99.90;;;;;;4955084;29;20023;-78
2022/05/24 04:28:20;;;;;;;2.17;1.90;;;16.80;99.90;;;;;;4956196;29;20163;-78
2022/05/24 04:30:47;;;;;;;4.25;2.15;;;16.90;99.90;;;;;;4955541;29;20489;-78
2022/05/24 04:33:15;;;;;;;3.60;1.90;;;16.90;99.90;;;;;;4955631;29;20039;-78
2022/05/24 04:35:41;;;;;;;2.55;2.05;;;16.80;99.90;;;;;;4954970;29;20121;-78
2022/05/24 04:38:07;;;;;;;2.38;2.00;;;16.90;99.90;;;;;;4956130;29;20118;-78
2022/05/24 04:43:16;;;;;;;3.15;2.17;;;16.90;99.90;;;;;;4957065;29;20038;-78
2022/05/24 04:45:42;;;;;;;6.57;1.88;;;16.90;99.90;;;;;;4955317;29;20027;-78
2022/05/24 04:48:08;;;;;;;2.05;1.73;;;16.90;99.90;;;;;;4955677;29;20031;-79
2022/05/24 04:50:35;;;;;;;2.10;1.70;;;16.90;99.90;;;;;;4955552;29;20035;-80
2022/05/24 04:53:01;;;;;;;3.33;1.70;;;16.90;99.90;;;;;;4955449;29;20127;-80
2022/05/24 04:55:28;;;;;;;2.13;1.75;;;16.90;99.90;;;;;;4955888;29;20058;-80
2022/05/24 04:57:55;;;;;;;2.00;1.73;;;17.00;99.90;;;;;;4955116;29;20528;-80
2022/05/24 05:00:21;;;;;;;2.42;1.60;;;17.00;99.90;;;;;;4956611;29;20104;-80
2022/05/24 05:02:47;;;;;;;1.77;1.52;;;17.00;99.90;;;;;;4955023;29;20027;-80
2022/05/24 05:05:16;;;;;;;5.20;1.58;;;17.10;99.90;;;;;;4955577;29;20031;-79
2022/05/24 05:07:42;;;;;;;3.28;1.20;;;17.10;99.90;;;;;;4954807;29;20473;-79
2022/05/24 05:10:10;;;;;;;1.90;1.58;;;17.10;99.90;;;;;;4955308;29;20072;-79
2022/05/24 05:12:36;;;;;;;4.35;1.70;;;17.10;99.90;;;;;;4955165;29;20508;-78
2022/05/24 05:15:03;;;;;;;2.67;1.38;;;17.10;99.90;;;;;;4954760;29;20125;-78
2022/05/24 05:17:29;;;;;;;1.30;1.20;;;17.10;99.90;;;;;;4955201;29;20031;-78
2022/05/24 05:19:55;;;;;;;2.90;1.75;;;17.10;99.90;;;;;;4954360;29;20096;-79
2022/05/24 05:22:24;;;;;;;2.20;1.38;;;17.10;99.90;;;;;;4956318;29;20035;-79
2022/05/24 05:24:50;;;;;;;2.67;1.10;;;17.10;99.90;;;;;;4955142;29;20055;-79
2022/05/24 05:27:15;;;;;;;1.92;1.30;;;17.10;99.90;;;;;;4955366;29;20389;-78
2022/05/24 05:32:26;;;;;;;2.22;1.25;;;17.30;99.90;;;;;;4955860;29;20043;-78
2022/05/24 05:34:53;;;;;;;2.97;1.27;;;17.30;99.90;;;;;;4954604;28;20031;-79
2022/05/24 05:37:19;;;;;;;2.72;1.13;;;17.30;99.90;;;;;;4955155;29;20333;-78
2022/05/24 05:39:45;;;;;;;6.03;1.20;;;17.40;99.90;;;;;;4956732;28;20026;-79
2022/05/24 05:42:11;;;;;;;4.68;1.25;;;17.40;99.90;;;;;;4954707;29;20035;-78
2022/05/24 05:44:38;;;;;;;1.50;1.10;;;17.30;99.90;;;;;;4955704;29;20031;-78
2022/05/24 05:47:05;;;;;;;1.55;1.10;;;17.30;99.90;;;;;;4954178;29;20351;-79
2022/05/24 05:49:30;;;;;;;3.65;1.60;;;17.40;99.90;;;;;;4954309;29;20035;-80
2022/05/24 05:51:56;;;;;;;4.93;1.60;;;17.30;99.90;;;;;;4955233;29;20046;-79
2022/05/24 05:54:23;;;;;;;2.33;1.30;;;17.30;99.90;;;;;;4954579;29;20027;-79
2022/05/24 05:56:49;;;;;;;3.33;1.55;;;17.30;99.90;;;;;;4954108;29;20027;-79
2022/05/24 05:59:15;;;;;;;2.78;1.45;;;17.20;99.90;;;;;;4955527;29;20043;-79
2022/05/24 06:01:42;;;;;;;2.85;1.20;;;17.10;99.90;;;;;;4954504;29;20099;-80
2022/05/24 06:04:09;;;;;;;4.03;1.40;;;16.80;99.90;;;;;;4955230;29;20456;-79
2022/05/24 06:06:40;;;;;;;1.23;1.00;;;16.80;99.90;;;;;;4954121;29;20027;-79
2022/05/24 06:09:06;;;;;;;1.50;0.82;;;16.80;99.90;;;;;;4953760;29;20111;-80
2022/05/24 06:11:31;;;;;;;2.17;0.82;;;16.70;99.90;;;;;;4938163;29;20039;-77
2022/05/24 06:13:57;;;;;;;1.13;0.80;;;16.70;99.90;;;;;;4955040;29;20046;-77
2022/05/24 06:16:22;;;;;;;0.70;0.60;;;16.70;99.90;;;;;;4954027;29;20027;-77
2022/05/24 06:18:48;;;;;;;1.20;0.60;;;16.70;99.90;;;;;;4953415;29;20034;-77
2022/05/24 06:21:14;;;;;;;1.25;0.65;;;16.70;99.90;;;;;;4954025;29;20039;-77
2022/05/24 06:23:40;;;;;;;4.10;0.50;;;16.60;99.90;;;;;;4954642;28;20131;-80
2022/05/24 06:26:07;;;;;;;1.63;0.50;;;16.50;99.90;;;;;;4973009;28;20338;-79
2022/05/24 06:28:32;;;;;;;1.65;0.60;;;16.50;99.90;;;;;;4974523;28;20022;-79
2022/05/24 06:30:58;;;;;;;2.05;0.60;;;16.50;99.90;;;;;;4972771;28;20030;-79
2022/05/24 06:33:24;;;;;;;2.28;0.63;;;16.60;99.90;;;;;;4973393;28;20460;-77
2022/05/24 06:35:49;;;;;;;1.00;0.55;;;16.50;99.90;;;;;;4972695;28;20023;-79
2022/05/24 06:38:16;;;;;;;1.55;0.50;;;16.50;99.90;;;;;;4973132;28;20407;-78
2022/05/24 06:40:42;;;;;;;1.55;0.50;;;16.50;99.90;;;;;;4973173;28;20077;-78
2022/05/24 06:43:09;;;;;;;6.45;0.82;;;16.50;99.90;;;;;;4973728;28;20035;-78
2022/05/24 06:45:35;;;;;;;0.68;0.60;;;16.40;99.90;;;;;;4973334;28;20034;-78
2022/05/24 06:48:00;;;;;;;0.50;0.40;;;16.40;99.90;;;;;;4974255;28;20031;-78
2022/05/24 06:50:26;;;;;;;0.95;0.40;;;16.30;99.90;;;;;;4976666;28;20031;-78
2022/05/24 06:52:56;;;;;;;1.50;0.47;;;16.30;99.90;;;;;;4976594;28;20502;-79
2022/05/24 06:55:23;;;;;;;0.80;0.30;;;16.30;99.90;;;;;;4977534;28;20054;-78
2022/05/24 06:57:49;;;;;;;1.73;0.68;;;16.30;99.90;;;;;;4977001;28;20045;-78
2022/05/24 07:03:06;;;;;;;1.52;0.32;;;16.20;99.90;;;;;;4977512;28;20030;-79
2022/05/24 07:05:33;;;;;;;2.42;0.40;;;16.10;99.90;;;;;;4977824;28;20462;-78
2022/05/24 07:08:00;;;;;;;2.40;0.25;;;16.10;99.90;;;;;;4977281;28;20034;-78
2022/05/24 07:10:28;;;;;;;1.20;0.47;;;16.20;99.90;;;;;;4976416;28;20033;-78
2022/05/24 07:13:02;;;;;;;0.60;0.40;;;16.10;99.90;;;;;;4977079;28;20035;-79
2022/05/24 07:15:28;;;;;;;1.00;0.50;;;16.10;99.90;;;;;;4976244;28;20045;-78
2022/05/24 07:17:54;;;;;;;1.83;0.60;;;16.20;99.90;;;;;;4976016;28;20114;-80
2022/05/24 07:20:20;;;;;;;1.80;0.38;;;16.20;99.90;;;;;;4977799;28;20475;-79
2022/05/24 07:22:48;;;;;;;0.65;0.30;;;16.30;99.90;;;;;;4976076;28;20033;-80
2022/05/24 07:25:14;;;;;;;0.43;0.30;;;16.40;99.90;;;;;;4976046;28;20061;-79
2022/05/24 07:27:40;;;;;;;1.25;0.50;;;16.40;99.90;;;;;;4976489;28;20472;-79
2022/05/24 07:30:06;;;;;;;1.27;0.47;;;16.40;99.90;;;;;;4975751;28;20086;-79
2022/05/24 07:32:32;;;;;;;2.13;0.45;;;16.30;99.90;;;;;;4977344;28;20023;-75
2022/05/24 07:34:59;;;;;;;6.40;0.50;;;16.20;99.90;;;;;;4975325;28;20042;-75
2022/05/24 07:37:25;;;;;;;0.80;0.30;;;16.20;99.90;;;;;;4975763;28;20053;-76
2022/05/24 07:45:47;;;;;;;1.25;0.57;;;16.30;99.90;;;;;;4975403;28;20023;-79
2022/05/24 07:48:06;;;;;;;0.82;0.32;;;16.40;99.90;;;;;;4976444;28;20128;-80
2022/05/24 07:50:32;;;;;;;1.15;0.45;;;16.40;99.90;;;;;;4976004;28;20122;-79
2022/05/24 07:52:57;;;;;;;0.95;0.30;;;16.20;99.90;;;;;;4976711;28;20452;-78
2022/05/24 07:55:25;;;;;;;1.58;0.50;;;16.10;99.90;;;;;;4975801;28;20468;-79
2022/05/24 07:57:51;;;;;;;2.38;0.50;;;16.00;99.90;;;;;;4975343;28;20027;-81
2022/05/24 08:00:17;;;;;;;3.05;0.40;;;16.00;99.90;;;;;;4974166;28;20468;-77
2022/05/24 08:02:42;;;;;;;2.80;0.70;;;16.10;99.90;;;;;;4975682;28;20037;-79
2022/05/24 08:05:09;;;;;;;2.15;0.57;;;16.30;99.90;;;;;;4974805;28;20118;-78
2022/05/24 08:07:34;;;;;;;1.25;0.52;;;16.40;99.90;;;;;;4976531;28;20109;-79
2022/05/24 08:10:00;;;;;;;1.50;0.52;;;16.50;99.90;;;;;;4974020;28;20475;-79
2022/05/24 08:12:25;;;;;;;1.23;0.60;;;16.60;99.90;;;;;;4957244;28;20480;-78
2022/05/24 08:14:52;;;;;;;0.93;0.40;;;16.70;99.90;;;;;;4978111;28;20471;-80
2022/05/24 08:17:17;;;;;;;1.90;0.55;;;16.60;99.90;;;;;;4995941;28;20144;-80
2022/05/24 08:19:43;;;;;;;0.77;0.40;;;16.40;99.90;;;;;;4996309;28;20061;-79
2022/05/24 08:22:09;;;;;;;0.85;0.35;;;16.30;99.90;;;;;;4995217;28;20137;-79
2022/05/24 08:24:34;;;;;;;3.13;0.50;;;16.30;99.90;;;;;;4994291;28;20554;-79
2022/05/24 08:27:00;;;;;;;1.83;0.50;;;16.40;99.90;;;;;;4979368;28;20568;-79
2022/05/24 08:29:26;;;;;;;1.10;0.30;;;16.40;99.90;;;;;;4958754;28;20380;-79
2022/05/24 08:31:51;;;;;;;0.47;0.40;;;16.50;99.90;;;;;;4974475;28;20577;-83
2022/05/24 08:34:18;;;;;;;1.45;0.30;;;16.50;99.90;;;;;;4958698;28;20033;-79
2022/05/24 08:36:43;;;;;;;0.95;0.32;;;16.60;99.90;;;;;;4975367;28;20023;-78
2022/05/24 08:39:09;;;;;;;0.22;0.22;;;16.60;99.90;;;;;;4974746;28;20031;-78
2022/05/24 08:41:56;;;;;;;2.80;0.50;;;16.70;99.90;;;;;;4974868;28;20031;-78
2022/05/24 08:50:16;;;;;;;2.50;0.50;;;16.70;99.90;;;;;;4975818;28;20041;-78
2022/05/24 08:52:47;;;;;;;0.82;0.30;;;16.80;99.90;;;;;;4974646;28;20039;-79
2022/05/24 08:55:14;;;;;;;0.73;0.50;;;16.80;99.90;;;;;;4974203;28;20038;-77
2022/05/24 08:57:50;;;;;;;2.25;0.60;;;16.80;99.90;;;;;;4974374;28;20300;-79
2022/05/24 09:00:21;;;;;;;1.40;0.30;;;16.90;99.90;;;;;;4975311;28;20030;-79
2022/05/24 09:02:47;;;;;;;0.63;0.25;;;17.00;99.90;;;;;;4972313;28;20097;-83
2022/05/24 09:05:16;;;;;;;2.28;0.30;;;17.00;99.90;;;;;;4974080;28;20496;-83
2022/05/24 09:07:51;;;;;;;0.98;0.50;;;16.90;99.90;;;;;;4960361;28;20014;-82
2022/05/24 09:10:26;;;;;;;0.57;0.43;;;17.00;99.90;;;;;;4956613;28;20086;-85
2022/05/24 09:13:19;;;;;;;3.33;0.40;;;17.10;99.90;;;;;;4969734;28;20126;-83
2022/05/24 09:16:02;;;;;;;0.65;0.22;;;17.00;99.90;;;;;;4976361;28;20109;-84
2022/05/24 09:19:05;;;;;;;0.82;0.30;;;17.10;99.90;;;;;;4976249;28;20019;-84
2022/05/24 09:21:33;;;;;;;0.80;0.30;;;17.10;99.90;;;;;;4957854;28;20047;-83
2022/05/24 09:24:31;;;;;;;0.60;0.40;;;17.10;99.90;;;;;;4975923;28;20062;-84
2022/05/24 09:27:13;;;;;;;2.00;0.32;;;17.20;99.90;;;;;;4957260;29;20031;-85
2022/05/24 09:30:08;;;;;;;1.23;0.30;;;17.50;99.90;;;;;;4973297;28;20022;-82
2022/05/24 09:32:42;;;;;;;0.47;0.30;;;17.70;99.90;;;;;;4959208;28;20070;-82
2022/05/24 09:35:21;;;;;;;1.30;0.40;;;17.70;99.90;;;;;;4983551;28;20030;-85
2022/05/24 09:38:12;;;;;;;2.65;0.43;;;17.90;99.90;;;;;;4990268;28;20022;-79
2022/05/24 09:41:04;;;;;;;0.45;0.22;;;18.00;99.90;;;;;;4957749;28;20026;-81
2022/05/24 09:43:33;;;;;;;1.75;0.30;;;18.20;98.70;;;;;;4972815;28;20038;-81
2022/05/24 09:46:05;;;;;;;0.60;0.30;;;18.30;98.60;;;;;;4969207;28;20051;-81
2022/05/24 09:48:34;;;;;;;1.25;0.32;;;18.10;98.10;;;;;;4956339;28;20034;-80
2022/05/24 09:51:02;;;;;;;0.82;0.40;;;18.10;98.40;;;;;;4972074;28;20030;-81
2022/05/24 09:53:31;;;;;;;1.83;0.47;;;18.20;97.90;;;;;;4973335;28;20094;-83
2022/05/24 09:56:03;;;;;;;1.27;0.40;;;18.20;97.90;;;;;;4946685;28;20054;-80
2022/05/24 09:58:31;;;;;;;24.52;12.88;;;18.10;98.00;;;;;;4965699;28;20026;-77
2022/05/24 10:01:04;;;;;;;2.35;1.40;;;18.00;98.30;;;;;;4956646;28;20035;-79
2022/05/24 10:03:33;;;;;;;2.83;0.60;;;17.90;98.40;;;;;;4970598;28;20405;-80
2022/05/24 10:06:09;;;;;;;0.85;0.40;;;18.10;98.40;;;;;;4968219;28;20031;-79
2022/05/24 10:08:43;;;;;;;3.90;1.13;;;18.10;98.00;;;;;;4968684;28;20037;-78
2022/05/24 10:11:28;;;;;;;1.45;0.80;;;18.20;98.00;;;;;;4967336;28;20026;-79
2022/05/24 10:14:31;;;;;;;1.92;0.32;;;18.20;97.70;;;;;;4979349;28;20444;-83
2022/05/24 10:17:47;;;;;;;0.75;0.50;;;18.20;97.90;;;;;;4952440;28;20035;-85
2022/05/24 10:20:40;;;;;;;2.38;1.35;;;18.10;98.50;;;;;;4918423;28;20035;-81
2022/05/24 10:23:15;;;;;;;0.65;0.40;;;18.30;97.70;;;;;;4968218;28;20039;-78
2022/05/24 10:26:01;;;;;;;0.77;0.30;;;18.50;97.40;;;;;;4956791;28;20047;-78
2022/05/24 10:28:37;;;;;;;1.00;0.40;;;18.50;96.30;;;;;;4973161;28;20050;-83
2022/05/24 10:31:45;;;;;;;1.40;0.50;;;18.50;96.70;;;;;;4958178;28;20027;-84
2022/05/24 10:40:35;;;;;;;0.20;0.20;;;18.30;95.60;;;;;;4971287;28;20151;-79
2022/05/24 10:43:00;;;;;;;0.77;0.22;;;18.50;93.20;;;;;;4961941;28;20468;-79
2022/05/24 10:49:18;;;;;;;1.95;0.35;;;18.80;90.40;;;;;;4913743;29;20048;-82
2022/05/24 10:51:56;;;;;;;1.30;0.20;;;19.10;87.60;;;;;;4875965;29;20119;-79
2022/05/24 10:55:02;;;;;;;2.13;0.55;;;19.20;86.10;;;;;;4860681;29;20040;-79
2022/05/24 10:58:11;;;;;;;1.77;0.40;;;19.30;85.80;;;;;;4908138;29;20032;-79
2022/05/24 11:00:41;;;;;;;2.38;0.35;;;19.50;85.60;;;;;;4912816;29;20111;-78
2022/05/24 11:03:13;;;;;;;0.90;0.20;;;19.40;85.90;;;;;;4910266;29;20501;-81
2022/05/24 11:05:49;;;;;;;1.45;0.30;;;19.30;86.20;;;;;;4913630;29;20036;-80
2022/05/24 11:08:32;;;;;;;2.78;0.40;;;19.20;86.80;;;;;;4908946;29;20052;-81
2022/05/24 11:11:06;;;;;;;1.38;0.20;;;19.20;88.00;;;;;;4916908;29;20622;-79
2022/05/24 11:13:47;;;;;;;0.75;0.20;;;19.20;88.70;;;;;;4913298;29;20032;-79
2022/05/24 11:16:22;;;;;;;0.20;0.20;;;19.00;88.80;;;;;;4913786;29;20187;-80
2022/05/24 11:18:47;;;;;;;0.82;0.40;;;18.90;90.20;;;;;;4913179;29;20040;-80
2022/05/24 11:21:28;;;;;;;0.63;0.30;;;18.80;89.80;;;;;;4913258;29;20040;-80
2022/05/24 11:24:08;;;;;;;2.75;0.47;;;18.80;90.20;;;;;;4918091;28;20545;-84
2022/05/24 11:26:39;;;;;;;0.40;0.20;;;18.80;89.30;;;;;;4972950;28;20030;-81
2022/05/24 11:29:18;;;;;;;1.63;0.30;;;18.80;86.00;;;;;;4972583;28;20023;-82
2022/05/24 11:31:50;;;;;;;0.77;0.55;;;18.80;86.20;;;;;;4956419;28;20060;-82
2022/05/24 11:34:25;;;;;;;1.30;0.30;;;18.80;85.90;;;;;;4973584;28;20062;-80
2022/05/24 11:37:23;;;;;;;4.22;0.40;;;18.70;80.50;;;;;;4959414;28;20052;-79
2022/05/24 11:39:49;;;;;;;0.35;0.17;;;18.70;79.50;;;;;;4969271;28;20026;-83
2022/05/24 11:42:45;;;;;;;0.30;0.20;;;18.80;79.90;;;;;;4975893;28;20111;-84
2022/05/24 11:45:30;;;;;;;0.90;0.65;;;18.90;80.60;;;;;;4976140;28;20034;-83
2022/05/24 11:48:07;;;;;;;1.80;0.82;;;19.00;78.40;;;;;;4961982;28;20539;-85
2022/05/24 11:50:44;;;;;;;0.50;0.22;;;19.10;79.20;;;;;;4979009;28;20030;-84
2022/05/24 11:53:38;;;;;;;1.88;0.60;;;19.30;78.80;;;;;;4976778;28;20057;-87
2022/05/24 11:56:10;;;;;;;1.10;0.60;;;19.30;77.80;;;;;;4963912;28;20027;-85
2022/05/24 11:58:36;;;;;;;0.95;0.20;;;19.30;79.10;;;;;;4957643;29;20031;-85
2022/05/24 12:01:30;;;;;;;2.95;0.40;;;19.40;79.00;;;;;;4974084;28;20102;-86
2022/05/24 12:10:22;;;;;;;1.00;0.20;;;19.50;79.40;;;;;;4976352;28;20041;-82
2022/05/24 12:13:05;;;;;;;1.60;0.70;;;19.60;77.70;;;;;;4981899;28;20030;-82
2022/05/24 12:15:31;;;;;;;0.55;0.32;;;19.70;78.40;;;;;;4962126;28;20036;-85
2022/05/24 12:17:59;;;;;;;0.70;0.40;;;19.70;78.10;;;;;;4959352;28;20383;-84
2022/05/24 12:20:34;;;;;;;1.15;0.30;;;19.80;77.50;;;;;;4959761;28;20065;-84
2022/05/24 12:23:03;;;;;;;0.30;0.10;;;19.90;77.40;;;;;;4955914;29;20071;-83
2022/05/24 12:25:58;;;;;;;0.30;0.25;;;20.20;77.40;;;;;;4974675;28;20414;-84
2022/05/24 12:28:40;;;;;;;0.35;0.20;;;20.30;78.30;;;;;;4975069;28;20068;-82
2022/05/24 12:31:14;;;;;;;;;;;20.50;75.80;;;;;;4974917;28;20034;-82
2022/05/24 12:33:59;;;;;;;5.05;0.30;;;20.30;75.40;;;;;;4977858;28;19964;-85
2022/05/24 12:36:46;;;;;;;3.25;0.30;;;20.20;77.00;;;;;;4980656;28;20031;-85
2022/05/24 12:39:17;;;;;;;2.92;0.28;;;20.10;77.50;;;;;;4986816;28;20030;-85
2022/05/24 12:41:44;;;;;;;0.70;0.20;;;20.10;78.30;;;;;;4979708;28;20023;-86
2022/05/24 12:44:19;;;;;;;0.10;0.10;;;20.30;77.70;;;;;;4961957;28;20031;-84
2022/05/24 12:46:50;;;;;;;1.02;0.20;;;20.40;75.70;;;;;;4973724;28;20035;-80
2022/05/24 12:49:20;;;;;;;1.17;0.15;;;20.50;74.80;;;;;;4973909;28;20240;-80
2022/05/24 12:51:46;;;;;;;1.48;0.30;;;20.60;75.50;;;;;;4961194;28;20428;-81
2022/05/24 12:54:19;;;;;;;3.95;0.35;;;20.90;76.30;;;;;;4975825;28;20161;-85
2022/05/24 12:57:06;;;;;;;0.70;0.30;;;20.90;75.00;;;;;;4976170;28;20037;-80
2022/05/24 12:59:41;;;;;;;0.43;0.20;;;21.00;74.70;;;;;;4976878;28;20031;-81
2022/05/24 13:02:22;;;;;;;0.25;0.20;;;20.90;73.70;;;;;;4980039;28;20050;-85
2022/05/24 13:04:49;;;;;;;1.05;0.28;;;20.70;74.10;;;;;;4985379;28;20071;-86
2022/05/24 13:07:38;;;;;;;0.45;0.15;;;20.60;74.90;;;;;;4974593;28;20038;-80
2022/05/24 13:10:35;;;;;;;1.10;0.20;;;20.90;72.60;;;;;;4960187;28;20023;-82
2022/05/24 13:13:06;;;;;;;1.05;0.10;;;21.30;71.70;;;;;;4979332;28;20503;-81
2022/05/24 13:15:39;;;;;;;0.47;0.10;;;21.50;70.90;;;;;;4974049;28;20019;-82
2022/05/24 13:18:12;;;;;;;0.45;0.10;;;21.80;70.50;;;;;;4957822;28;20121;-81
2022/05/24 13:20:47;;;;;;;4.28;0.25;;;22.00;69.00;;;;;;4974090;28;20031;-81
2022/05/24 13:23:15;;;;;;;1.15;0.32;;;22.40;68.40;;;;;;4970122;28;20026;-81
2022/05/24 13:25:44;;;;;;;0.50;0.10;;;22.30;66.90;;;;;;4957711;28;20066;-81
2022/05/24 13:28:10;;;;;;;2.25;0.20;;;22.20;67.60;;;;;;4957330;28;20464;-77
2022/05/24 13:33:36;;;;;;;0.70;0.10;;;22.10;67.80;;;;;;4968636;28;20038;-79
2022/05/24 13:36:18;;;;;;;2.05;0.20;;;21.80;66.20;;;;;;4974423;28;20380;-81
2022/05/24 13:42:57;;;;;;;1.23;0.10;;;21.30;68.90;;;;;;4941203;28;20066;-82
2022/05/24 13:45:26;;;;;;;0.93;0.20;;;22.10;67.30;;;;;;4865005;29;20064;-82
2022/05/24 13:48:00;;;;;;;1.65;0.38;;;22.50;65.20;;;;;;4896488;29;20032;-83
2022/05/24 13:50:41;;;;;;;1.67;0.15;;;22.20;63.60;;;;;;4898126;29;20049;-82
2022/05/24 13:53:25;;;;;;;0.10;0.00;;;22.50;61.80;;;;;;4898293;29;20064;-83
2022/05/24 13:56:05;;;;;;;0.22;0.00;;;22.80;61.60;;;;;;4899595;29;20068;-85
2022/05/24 13:58:37;;;;;;;0.20;0.00;;;22.90;60.80;;;;;;4898311;29;20115;-85
2022/05/24 14:01:53;;;;;;;;;;;;;;;;;;;;;
2022/05/24 14:04:41;;;;;;;1.25;0.20;;;22.20;60.10;;;;;;4896560;29;20037;-82
2022/05/24 14:07:16;;;;;;;0.10;0.03;;;22.50;60.10;;;;;;4883301;29;20075;-82